Time;durP1;ratioP1;P1;durP2;ratioP2;P2;SDS_P1;SDS_P2;PMS_P1;PMS_P2;Temp;Humidity;BMP_temperature;BMP_pressure;BME280_temperature;BME280_humidity;BME280_pressure;Samples;Min_cycle;Max_cycle;Signal;HPM_P1;HPM_P2
2022/12/31 00:01:29;;;;;;;58.40;23.33;;;2.80;99.90;;;;;;4938191;29;20028;-74
2022/12/31 00:03:56;;;;;;;58.90;24.17;;;2.80;99.90;;;;;;4921120;29;20028;-74
2022/12/31 00:06:23;;;;;;;60.78;23.67;;;2.80;99.90;;;;;;4921056;29;20109;-74
2022/12/31 00:08:50;;;;;;;63.42;24.55;;;2.80;99.90;;;;;;4938613;29;20468;-73
2022/12/31 00:11:16;;;;;;;62.38;24.10;;;2.80;99.90;;;;;;4920929;29;20028;-74
2022/12/31 00:13:42;;;;;;;60.80;24.20;;;2.80;99.90;;;;;;4921695;29;20036;-75
2022/12/31 00:16:29;;;;;;;67.90;25.17;;;2.80;99.90;;;;;;4939965;29;20036;-75
2022/12/31 00:18:59;;;;;;;71.10;25.40;;;2.80;99.90;;;;;;4924644;29;20031;-74
2022/12/31 00:21:27;;;;;;;65.35;24.98;;;2.90;99.90;;;;;;4943127;29;20031;-77
2022/12/31 00:23:53;;;;;;;62.22;24.15;;;2.80;99.90;;;;;;4943200;29;20094;-74
2022/12/31 00:26:21;;;;;;;92.13;27.30;;;2.80;99.90;;;;;;4926350;29;20043;-74
2022/12/31 00:28:47;;;;;;;76.80;24.90;;;2.80;99.90;;;;;;4943713;29;20032;-74
2022/12/31 00:31:16;;;;;;;69.55;26.67;;;2.80;99.90;;;;;;4926091;29;20027;-74
2022/12/31 00:33:42;;;;;;;65.10;24.75;;;2.80;99.90;;;;;;4926338;29;20461;-74
2022/12/31 00:36:14;;;;;;;65.43;24.48;;;2.80;99.90;;;;;;4925874;29;20171;-74
2022/12/31 00:38:43;;;;;;;57.50;22.83;;;2.80;99.90;;;;;;4942300;29;20056;-73
2022/12/31 00:41:10;;;;;;;64.75;24.02;;;2.80;99.90;;;;;;4942339;29;20524;-74
2022/12/31 00:43:35;;;;;;;63.95;24.75;;;2.80;99.90;;;;;;4925136;29;20467;-73
2022/12/31 00:46:02;;;;;;;62.20;23.63;;;2.80;99.90;;;;;;4923817;29;20063;-74
2022/12/31 00:48:28;;;;;;;62.50;24.20;;;2.80;99.90;;;;;;4941461;29;20043;-73
2022/12/31 00:50:54;;;;;;;64.95;24.20;;;2.80;99.90;;;;;;4924033;29;20032;-73
2022/12/31 00:53:20;;;;;;;64.22;24.90;;;2.70;99.90;;;;;;4941331;29;20028;-73
2022/12/31 00:55:46;;;;;;;66.15;23.27;;;2.80;99.90;;;;;;4941232;29;20032;-73
2022/12/31 00:58:12;;;;;;;59.33;24.23;;;2.80;99.90;;;;;;4925268;29;20054;-73
2022/12/31 01:00:39;;;;;;;61.65;25.73;;;2.80;99.90;;;;;;4941995;29;20373;-73
2022/12/31 01:03:05;;;;;;;62.35;26.27;;;2.80;99.90;;;;;;4925210;29;20035;-73
2022/12/31 01:05:31;;;;;;;66.38;25.48;;;2.80;99.90;;;;;;4923537;29;20043;-73
2022/12/31 01:07:57;;;;;;;67.45;24.98;;;2.80;99.90;;;;;;4923052;29;20385;-72
2022/12/31 01:13:08;;;;;;;68.05;26.50;;;2.90;99.90;;;;;;4939227;29;20039;-71
2022/12/31 01:15:35;;;;;;;72.30;27.05;;;2.90;99.90;;;;;;4938843;29;20020;-71
2022/12/31 01:18:02;;;;;;;68.57;26.83;;;2.90;99.90;;;;;;4938506;29;20473;-71
2022/12/31 01:20:28;;;;;;;76.70;28.95;;;2.90;99.90;;;;;;4938845;29;20108;-71
2022/12/31 01:22:53;;;;;;;74.63;29.02;;;2.90;99.90;;;;;;4921829;29;20056;-72
2022/12/31 01:25:19;;;;;;;75.55;28.27;;;2.90;99.90;;;;;;4921577;29;20031;-72
2022/12/31 01:27:45;;;;;;;75.55;28.42;;;3.00;99.90;;;;;;4938935;29;20040;-71
2022/12/31 01:30:11;;;;;;;77.40;28.35;;;3.00;99.90;;;;;;4938517;29;20106;-73
2022/12/31 01:32:37;;;;;;;76.47;29.73;;;2.90;99.90;;;;;;4943958;29;20464;-73
2022/12/31 01:35:03;;;;;;;79.72;28.73;;;3.00;99.90;;;;;;4928181;29;20083;-73
2022/12/31 01:37:28;;;;;;;74.53;28.65;;;3.00;99.90;;;;;;4926437;29;20048;-72
2022/12/31 01:39:54;;;;;;;77.03;29.75;;;3.00;99.90;;;;;;4924498;29;20042;-72
2022/12/31 01:42:20;;;;;;;67.90;27.52;;;3.00;99.90;;;;;;4922671;29;20027;-71
2022/12/31 01:44:52;;;;;;;76.05;29.25;;;3.00;99.90;;;;;;4939178;29;20024;-72
2022/12/31 01:47:27;;;;;;;69.85;27.00;;;3.00;99.90;;;;;;4920867;29;20032;-71
2022/12/31 01:50:00;;;;;;;66.30;28.15;;;3.00;99.90;;;;;;4938286;29;20036;-73
2022/12/31 01:52:40;;;;;;;69.93;27.67;;;3.00;99.90;;;;;;4920805;29;20034;-72
2022/12/31 01:55:15;;;;;;;68.32;27.52;;;3.00;99.90;;;;;;4938203;29;20026;-72
2022/12/31 01:57:43;;;;;;;66.90;28.30;;;2.90;99.90;;;;;;4921527;29;20453;-72
2022/12/31 02:00:09;;;;;;;69.55;27.52;;;3.00;99.90;;;;;;4937727;29;20421;-72
2022/12/31 02:02:35;;;;;;;65.00;26.42;;;3.00;99.90;;;;;;4920901;29;20090;-72
2022/12/31 02:05:08;;;;;;;61.45;25.90;;;3.00;99.90;;;;;;4920930;29;20023;-72
2022/12/31 02:07:34;;;;;;;62.53;25.98;;;3.10;99.90;;;;;;4920864;29;20392;-72
2022/12/31 02:10:00;;;;;;;62.13;24.90;;;3.00;99.90;;;;;;4938159;29;20042;-72
2022/12/31 02:12:26;;;;;;;58.60;25.63;;;3.10;99.90;;;;;;4938065;29;20111;-72
2022/12/31 02:14:53;;;;;;;67.60;27.08;;;3.10;99.90;;;;;;4921214;29;20114;-72
2022/12/31 02:17:39;;;;;;;62.97;27.13;;;3.10;99.90;;;;;;4920381;29;20035;-72
2022/12/31 02:20:31;;;;;;;57.10;24.83;;;3.10;99.90;;;;;;4921083;29;20028;-71
2022/12/31 02:23:00;;;;;;;64.03;25.23;;;3.10;99.90;;;;;;4937647;29;20038;-71
2022/12/31 02:25:46;;;;;;;59.45;24.63;;;3.10;99.90;;;;;;4937344;29;20532;-72
2022/12/31 02:28:46;;;;;;;54.03;24.25;;;3.20;99.90;;;;;;4937611;29;20039;-71
2022/12/31 02:31:21;;;;;;;53.13;24.05;;;3.20;99.90;;;;;;4920076;29;20036;-71
2022/12/31 02:33:51;;;;;;;60.45;25.13;;;3.20;99.90;;;;;;4937911;29;20071;-71
2022/12/31 02:36:25;;;;;;;58.22;24.33;;;3.20;99.90;;;;;;4937256;29;20384;-71
2022/12/31 02:38:52;;;;;;;56.63;24.05;;;3.20;99.90;;;;;;4920269;29;20027;-72
2022/12/31 02:44:25;;;;;;;62.40;25.02;;;3.20;99.90;;;;;;4936629;29;20035;-71
2022/12/31 02:47:30;;;;;;;53.45;23.52;;;3.20;99.90;;;;;;4920061;29;20476;-71
2022/12/31 02:50:23;;;;;;;57.40;25.23;;;3.20;99.90;;;;;;4936710;29;20047;-71
2022/12/31 02:53:24;;;;;;;54.00;24.23;;;3.30;99.90;;;;;;4919965;29;20123;-71
2022/12/31 02:56:08;;;;;;;60.00;25.02;;;3.40;99.90;;;;;;4936168;29;20040;-71
2022/12/31 03:04:34;;;;;;;54.28;24.42;;;3.40;99.90;;;;;;4936881;29;20104;-71
2022/12/31 03:07:13;;;;;;;59.08;25.08;;;3.40;99.90;;;;;;4920578;29;20055;-71
2022/12/31 03:09:39;;;;;;;53.20;23.73;;;3.40;99.90;;;;;;4919613;29;20036;-71
2022/12/31 03:14:51;;;;;;;53.13;23.85;;;3.50;99.90;;;;;;4936977;29;20051;-71
2022/12/31 03:17:17;;;;;;;54.97;23.38;;;3.50;99.90;;;;;;4936560;29;20424;-70
2022/12/31 03:22:27;;;;;;;51.42;23.15;;;3.50;99.90;;;;;;4936872;29;20042;-71
2022/12/31 03:27:44;;;;;;;51.97;21.73;;;3.50;99.90;;;;;;4936457;29;20091;-71
2022/12/31 03:30:11;;;;;;;49.00;24.00;;;3.50;99.90;;;;;;4919727;29;20046;-70
2022/12/31 03:32:37;;;;;;;48.70;22.00;;;3.50;99.90;;;;;;4936885;29;20157;-71
2022/12/31 03:35:04;;;;;;;51.95;22.75;;;3.60;99.90;;;;;;4936358;29;20457;-70
2022/12/31 03:37:30;;;;;;;53.83;23.98;;;3.50;99.90;;;;;;4936663;29;20052;-70
2022/12/31 03:39:56;;;;;;;56.45;25.05;;;3.60;99.90;;;;;;4936532;29;20034;-70
2022/12/31 03:42:21;;;;;;;49.50;23.25;;;3.60;99.90;;;;;;4936558;29;20083;-70
2022/12/31 03:44:47;;;;;;;55.30;24.27;;;3.60;99.90;;;;;;4936492;29;20024;-70
2022/12/31 03:47:12;;;;;;;51.90;23.58;;;3.60;99.90;;;;;;4936433;29;20028;-70
2022/12/31 03:49:38;;;;;;;50.67;23.40;;;3.70;99.90;;;;;;4937179;29;20031;-70
2022/12/31 03:52:05;;;;;;;46.22;23.02;;;3.70;99.90;;;;;;4919876;29;20475;-71
2022/12/31 03:54:31;;;;;;;50.30;24.10;;;3.70;99.90;;;;;;4938854;29;20031;-70
2022/12/31 03:56:57;;;;;;;49.75;22.95;;;3.70;99.90;;;;;;4940311;29;20094;-71
2022/12/31 03:59:23;;;;;;;48.90;23.77;;;3.70;99.90;;;;;;4923604;29;20468;-70
2022/12/31 04:01:48;;;;;;;50.90;22.48;;;3.70;99.90;;;;;;4923896;29;20033;-71
2022/12/31 04:04:14;;;;;;;51.67;24.08;;;3.70;99.90;;;;;;4940764;29;20027;-70
2022/12/31 04:06:40;;;;;;;48.67;22.52;;;3.70;99.90;;;;;;4940264;29;20116;-71
2022/12/31 04:09:05;;;;;;;54.30;23.50;;;3.60;99.90;;;;;;4940431;29;20032;-70
2022/12/31 04:11:31;;;;;;;51.80;22.88;;;3.60;99.90;;;;;;4923434;29;20027;-70
2022/12/31 04:13:59;;;;;;;52.90;23.90;;;3.60;99.90;;;;;;4922930;29;20095;-70
2022/12/31 04:16:25;;;;;;;47.13;22.08;;;3.60;99.90;;;;;;4922784;29;20032;-70
2022/12/31 04:18:50;;;;;;;49.70;23.27;;;3.60;99.90;;;;;;4939892;29;20034;-70
2022/12/31 04:21:16;;;;;;;47.40;22.80;;;3.60;99.90;;;;;;4922818;29;20062;-70
2022/12/31 04:23:42;;;;;;;53.00;22.80;;;3.60;99.90;;;;;;4939929;29;20028;-70
2022/12/31 04:26:08;;;;;;;49.83;21.63;;;3.60;99.90;;;;;;4939835;29;20032;-70
2022/12/31 04:28:33;;;;;;;47.95;22.40;;;3.70;99.90;;;;;;4939975;29;20039;-70
2022/12/31 04:30:59;;;;;;;48.42;23.08;;;3.70;99.90;;;;;;4940199;29;20384;-70
2022/12/31 04:33:25;;;;;;;51.10;24.42;;;3.70;99.90;;;;;;4940134;29;20039;-70
2022/12/31 04:35:50;;;;;;;47.53;22.60;;;3.70;99.90;;;;;;4939897;29;20469;-70
2022/12/31 04:38:16;;;;;;;53.22;22.55;;;3.70;99.90;;;;;;4922396;29;20199;-70
2022/12/31 04:43:28;;;;;;;51.75;21.65;;;3.70;99.90;;;;;;4939710;29;20066;-70
2022/12/31 04:45:54;;;;;;;53.10;23.20;;;3.70;99.90;;;;;;4922541;29;20063;-72
2022/12/31 04:48:20;;;;;;;51.35;23.00;;;3.70;99.90;;;;;;4922981;29;20044;-70
2022/12/31 04:50:46;;;;;;;50.95;23.98;;;3.60;99.90;;;;;;4939692;29;20031;-70
2022/12/31 04:53:11;;;;;;;55.50;24.63;;;3.60;99.90;;;;;;4922722;29;20087;-70
2022/12/31 04:55:39;;;;;;;50.95;24.10;;;3.60;99.90;;;;;;4939493;29;20499;-70
2022/12/31 04:58:05;;;;;;;56.17;24.40;;;3.60;99.90;;;;;;4939829;29;20035;-70
2022/12/31 05:00:31;;;;;;;50.08;23.58;;;3.60;99.90;;;;;;4922364;29;20031;-70
2022/12/31 05:02:57;;;;;;;55.13;25.83;;;3.60;99.90;;;;;;4939389;29;20050;-70
2022/12/31 05:05:22;;;;;;;51.88;23.83;;;3.70;99.90;;;;;;4937961;29;20473;-70
2022/12/31 05:07:48;;;;;;;59.45;24.55;;;3.70;99.90;;;;;;4922078;29;20487;-70
2022/12/31 05:10:14;;;;;;;57.63;24.85;;;3.70;99.90;;;;;;4939140;29;20036;-70
2022/12/31 05:12:39;;;;;;;51.67;24.92;;;3.70;99.90;;;;;;4939183;29;20035;-70
2022/12/31 05:15:06;;;;;;;50.33;24.17;;;3.70;99.90;;;;;;4922203;29;20036;-70
2022/12/31 05:17:31;;;;;;;49.97;24.60;;;3.70;99.90;;;;;;4926389;29;20043;-72
2022/12/31 05:19:57;;;;;;;51.33;25.15;;;3.70;99.90;;;;;;4926720;29;20059;-71
2022/12/31 05:22:28;;;;;;;50.35;24.42;;;3.70;99.90;;;;;;4943862;29;20024;-72
2022/12/31 05:24:55;;;;;;;49.22;24.25;;;3.70;99.90;;;;;;4942682;29;20099;-70
2022/12/31 05:27:21;;;;;;;46.55;22.25;;;3.80;99.90;;;;;;4922842;29;20028;-70
2022/12/31 05:29:47;;;;;;;49.03;23.33;;;3.80;99.90;;;;;;4922655;29;20499;-70
2022/12/31 05:32:13;;;;;;;52.85;24.35;;;3.80;99.90;;;;;;4939079;29;20055;-70
2022/12/31 05:34:38;;;;;;;46.30;23.30;;;3.80;99.90;;;;;;4921668;29;20487;-70
2022/12/31 05:37:04;;;;;;;49.63;24.60;;;3.80;99.90;;;;;;4938462;29;20056;-70
2022/12/31 05:39:30;;;;;;;46.50;23.13;;;3.80;99.90;;;;;;4938595;29;20023;-70
2022/12/31 05:41:55;;;;;;;48.35;22.85;;;3.80;99.90;;;;;;4938402;29;20480;-71
2022/12/31 05:44:21;;;;;;;45.95;23.55;;;3.80;99.90;;;;;;4938735;29;20389;-71
2022/12/31 05:46:46;;;;;;;50.67;23.85;;;3.90;99.90;;;;;;4938391;29;20110;-71
2022/12/31 05:49:12;;;;;;;42.55;22.92;;;3.80;99.90;;;;;;4938367;29;20071;-71
2022/12/31 05:51:38;;;;;;;44.05;22.90;;;3.90;99.90;;;;;;4921785;29;20052;-72
2022/12/31 05:54:04;;;;;;;46.30;22.58;;;3.90;99.90;;;;;;4938729;29;20039;-72
2022/12/31 05:56:29;;;;;;;48.95;23.38;;;3.90;99.90;;;;;;4921351;29;20042;-72
2022/12/31 05:58:55;;;;;;;47.20;23.45;;;3.90;99.90;;;;;;4939790;29;20110;-73
2022/12/31 06:01:21;;;;;;;55.35;24.67;;;3.90;99.90;;;;;;4938814;29;20027;-72
2022/12/31 06:03:46;;;;;;;43.08;23.23;;;3.90;99.90;;;;;;4921605;29;20554;-72
2022/12/31 06:06:12;;;;;;;48.58;24.65;;;3.90;99.90;;;;;;4920932;29;20036;-72
2022/12/31 06:08:38;;;;;;;55.28;24.88;;;3.90;99.90;;;;;;4920909;29;20027;-72
2022/12/31 06:11:03;;;;;;;46.47;24.15;;;4.00;99.90;;;;;;4920927;29;20031;-72
2022/12/31 06:13:29;;;;;;;47.80;23.13;;;4.00;99.90;;;;;;4920836;29;20059;-72
2022/12/31 06:15:55;;;;;;;45.47;23.35;;;4.00;99.90;;;;;;4937704;29;20496;-72
2022/12/31 06:18:20;;;;;;;45.70;23.33;;;4.00;99.90;;;;;;4937297;29;20058;-71
2022/12/31 06:20:46;;;;;;;49.42;23.05;;;4.00;99.90;;;;;;4920663;29;20052;-71
2022/12/31 06:23:12;;;;;;;45.85;24.05;;;4.00;99.90;;;;;;4937004;29;20043;-71
2022/12/31 06:25:37;;;;;;;44.13;23.90;;;4.00;99.90;;;;;;4937355;29;20032;-71
2022/12/31 06:28:04;;;;;;;45.60;23.88;;;4.00;99.90;;;;;;4937791;29;20031;-71
2022/12/31 06:30:30;;;;;;;46.70;24.40;;;4.00;99.90;;;;;;4937502;29;20043;-71
2022/12/31 06:32:56;;;;;;;47.63;24.58;;;4.00;99.90;;;;;;4937475;29;20032;-70
2022/12/31 06:35:21;;;;;;;48.80;24.15;;;4.00;99.90;;;;;;4937446;29;20059;-71
2022/12/31 06:37:47;;;;;;;49.33;24.60;;;4.00;99.90;;;;;;4937376;29;20044;-71
2022/12/31 06:40:13;;;;;;;42.33;23.38;;;4.00;99.90;;;;;;4920424;29;20055;-72
2022/12/31 06:42:41;;;;;;;48.67;24.05;;;4.00;99.90;;;;;;4937386;29;20031;-72
2022/12/31 06:45:07;;;;;;;50.22;23.65;;;4.00;99.90;;;;;;4937029;29;20469;-73
2022/12/31 06:47:33;;;;;;;47.05;24.02;;;4.10;99.90;;;;;;4937365;29;20032;-73
2022/12/31 06:49:58;;;;;;;45.05;24.20;;;4.10;99.90;;;;;;4937397;29;20369;-72
2022/12/31 06:52:24;;;;;;;45.15;21.88;;;4.10;99.90;;;;;;4937073;29;20020;-70
2022/12/31 06:54:50;;;;;;;43.20;22.42;;;4.10;99.90;;;;;;4920078;29;20066;-72
2022/12/31 06:57:16;;;;;;;45.78;22.27;;;4.10;99.90;;;;;;4937201;29;20070;-71
2022/12/31 06:59:43;;;;;;;45.22;23.73;;;4.10;99.90;;;;;;4937425;29;20483;-72
2022/12/31 07:02:33;;;;;;;46.33;24.65;;;4.10;99.90;;;;;;4937366;29;20026;-72
2022/12/31 07:05:21;;;;;;;47.42;25.05;;;4.10;99.90;;;;;;4937637;29;20023;-73
2022/12/31 07:08:27;;;;;;;46.88;23.67;;;4.10;99.90;;;;;;4937928;29;20086;-73
2022/12/31 07:11:01;;;;;;;45.72;23.77;;;4.10;99.90;;;;;;4920461;29;20035;-75
2022/12/31 07:13:52;;;;;;;49.50;24.40;;;4.20;99.90;;;;;;4938148;29;20091;-71
2022/12/31 07:16:42;;;;;;;45.95;25.33;;;4.20;99.90;;;;;;4938049;29;20384;-72
2022/12/31 07:19:45;;;;;;;46.85;24.95;;;4.20;99.90;;;;;;4921041;29;20030;-71
2022/12/31 07:22:14;;;;;;;45.15;24.38;;;4.20;99.90;;;;;;4936481;29;20055;-71
2022/12/31 07:24:41;;;;;;;52.10;25.92;;;4.20;99.90;;;;;;4920600;29;20036;-71
2022/12/31 07:27:31;;;;;;;45.13;24.77;;;4.30;99.90;;;;;;4920359;29;20094;-71
2022/12/31 07:30:00;;;;;;;44.00;24.83;;;4.30;99.90;;;;;;4920071;29;20047;-73
2022/12/31 07:32:37;;;;;;;47.22;24.08;;;4.30;99.90;;;;;;4937331;29;20149;-71
2022/12/31 07:35:26;;;;;;;43.55;23.13;;;4.30;99.90;;;;;;4937497;29;20028;-71
2022/12/31 07:38:01;;;;;;;43.97;23.60;;;4.40;99.90;;;;;;4937206;29;20101;-71
2022/12/31 07:40:33;;;;;;;45.92;24.83;;;4.40;99.90;;;;;;4937223;29;20031;-71
2022/12/31 07:43:06;;;;;;;47.58;23.70;;;4.40;99.90;;;;;;4920391;29;20035;-72
2022/12/31 07:45:56;;;;;;;43.40;23.15;;;4.40;99.90;;;;;;4936865;29;20023;-72
2022/12/31 07:48:24;;;;;;;40.90;22.83;;;4.40;99.90;;;;;;4935655;29;20035;-71
2022/12/31 07:50:53;;;;;;;44.17;23.35;;;4.40;99.90;;;;;;4936874;29;20111;-72
2022/12/31 07:53:20;;;;;;;41.50;23.08;;;4.40;99.90;;;;;;4920066;29;20036;-72
2022/12/31 07:55:46;;;;;;;47.85;22.35;;;4.50;99.90;;;;;;4937579;29;20031;-71
2022/12/31 07:58:44;;;;;;;46.63;23.55;;;4.50;99.90;;;;;;4936636;29;20031;-72
2022/12/31 08:01:18;;;;;;;40.30;22.75;;;4.50;99.90;;;;;;4937066;29;20028;-72
2022/12/31 08:04:14;;;;;;;42.17;23.73;;;4.50;99.90;;;;;;4936734;29;20376;-72
2022/12/31 08:06:51;;;;;;;44.88;22.92;;;4.60;99.90;;;;;;4936738;29;20062;-71
2022/12/31 08:09:43;;;;;;;44.50;22.33;;;4.60;99.90;;;;;;4936466;29;20032;-71
2022/12/31 08:12:09;;;;;;;42.20;22.15;;;4.70;99.90;;;;;;4932607;29;20477;-71
2022/12/31 08:14:47;;;;;;;37.03;22.15;;;4.80;99.90;;;;;;4937058;29;20035;-72
2022/12/31 08:17:14;;;;;;;38.45;23.33;;;4.80;99.90;;;;;;4936377;29;20042;-71
2022/12/31 08:19:40;;;;;;;40.03;22.63;;;4.90;99.90;;;;;;4919755;29;20032;-72
2022/12/31 08:22:18;;;;;;;37.25;21.40;;;5.00;99.90;;;;;;4919536;29;20376;-72
2022/12/31 08:25:18;;;;;;;37.58;21.65;;;5.10;99.90;;;;;;4936758;29;20465;-71
2022/12/31 08:27:52;;;;;;;35.72;21.02;;;5.20;99.90;;;;;;4919470;29;20036;-71
2022/12/31 08:30:20;;;;;;;36.80;21.20;;;5.30;99.90;;;;;;4936988;29;20085;-71
2022/12/31 08:33:05;;;;;;;39.92;21.70;;;5.40;99.90;;;;;;4936405;29;20020;-70
2022/12/31 08:35:51;;;;;;;37.58;21.08;;;5.40;99.90;;;;;;4919615;29;20380;-72
2022/12/31 08:38:29;;;;;;;33.45;20.48;;;5.60;99.90;;;;;;4900648;29;20413;-72
2022/12/31 08:41:06;;;;;;;36.47;20.58;;;5.80;99.90;;;;;;4903329;29;20032;-72
2022/12/31 08:43:48;;;;;;;32.83;20.15;;;6.00;99.90;;;;;;4921077;29;20032;-70
2022/12/31 08:46:43;;;;;;;37.85;22.05;;;6.20;99.90;;;;;;4921193;29;20038;-71
2022/12/31 08:49:09;;;;;;;32.88;20.05;;;6.30;99.90;;;;;;4887019;29;20123;-71
2022/12/31 08:51:35;;;;;;;33.35;20.85;;;6.30;99.90;;;;;;4920902;29;20055;-71
2022/12/31 08:54:01;;;;;;;30.10;18.65;;;6.30;99.90;;;;;;4920870;29;20094;-72
2022/12/31 08:56:32;;;;;;;30.23;19.17;;;6.30;99.90;;;;;;4904165;29;20036;-72
2022/12/31 08:59:28;;;;;;;33.70;19.60;;;6.30;99.90;;;;;;4921700;29;20056;-72
2022/12/31 09:02:19;;;;;;;31.80;19.60;;;6.30;99.90;;;;;;4923033;29;20055;-72
2022/12/31 09:05:12;;;;;;;31.33;19.70;;;6.30;99.90;;;;;;4916849;29;20048;-72
2022/12/31 09:08:13;;;;;;;29.25;18.40;;;6.30;99.90;;;;;;4926859;29;20056;-72
2022/12/31 09:10:43;;;;;;;29.67;18.55;;;6.30;99.90;;;;;;4908770;29;20079;-72
2022/12/31 09:13:18;;;;;;;30.88;18.70;;;6.20;99.90;;;;;;4925156;29;20034;-71
2022/12/31 09:15:58;;;;;;;30.52;18.80;;;6.10;99.90;;;;;;4924266;29;20032;-71
2022/12/31 09:18:24;;;;;;;31.40;19.02;;;6.00;99.90;;;;;;4923870;29;20052;-72
